DFFD/OUA METAR and TAF weather

Enter ICAO airport designator
Station Type Date Time Source
DFFD METAR 2022/06/30 13:00 UTC NOAA

DFFD 301300Z 26007KT 230V310 9999 FEW020 32/23 Q1011 NOSIG


Station Type Date Time Source
DFFD Decoded METAR 2022/06/30 13:00 UTC NOAA

Ouagadougou, Burkina Faso (DFFD) 12-21N 001-31W 306M
Jun 30, 2022 - 09:00 AM EDT / 2022.06.30 1300 UTC
Wind: from the W (260 degrees) at 8 MPH (7 KT) (direction variable):0
Visibility: greater than 7 mile(s):0
Sky conditions: mostly clear
Temperature: 89 F (32 C)
Heat index: 96.8 F (36.0 C):1
Dew Point: 73 F (23 C)
Relative Humidity: 59%
Pressure (altimeter): 29.85 in. Hg (1011 hPa)
ob: DFFD 301300Z 26007KT 230V310 9999 FEW020 32/23 Q1011 NOSIG
cycle: 13

Station Type Date Time Source
DFFD TAF 2022/06/30 12:03 UTC NOAA

TAF TAF DFFD 301100Z 3012/0118 22008KT 9999 FEW026
TEMPO 3014/3024 4000 TSRA SCT026 FEW036CB

Example: see airport list